EFTP/TMP METAR and TAF weather

Enter ICAO airport designator
Station Type Date Time Source
EFTP METAR 2020/02/24 23:50 UTC NOAA

EFTP 242350Z AUTO 29005KT CAVOK M03/M08 Q0998


Station Type Date Time Source
EFTP Decoded METAR 2020/02/24 23:50 UTC NOAA

Tampere / Pirkkala, Finland (EFTP) 61-25N 023-35E 112M
Feb 24, 2020 - 06:50 PM EST / 2020.02.24 2350 UTC
Wind: from the WNW (290 degrees) at 6 MPH (5 KT):0
Visibility: greater than 7 mile(s):0
Temperature: 26 F (-3 C)
Windchill: 19 F (-7 C):1
Dew Point: 17 F (-8 C)
Relative Humidity: 68%
Pressure (altimeter): 29.47 in. Hg (0998 hPa)
ob: EFTP 242350Z AUTO 29005KT CAVOK M03/M08 Q0998
cycle: 0

Station Type Date Time Source
EFTP TAF 2020/02/24 21:42 UTC NOAA

TAF EFTP 242030Z 2421/2521 27008KT CAVOK

Example: see airport list